sensor_id;sensor_type;location;lat;lon;timestamp;temperature;humidity
39677;DHT22;27789;50.840;4.386;2023-06-14T00:01:01;23.10;86.10
39677;DHT22;27789;50.840;4.386;2023-06-14T00:03:28;23.00;86.40
39677;DHT22;27789;50.840;4.386;2023-06-14T00:05:54;23.00;86.00
39677;DHT22;27789;50.840;4.386;2023-06-14T00:08:19;23.00;86.30
39677;DHT22;27789;50.840;4.386;2023-06-14T00:10:46;23.00;86.30
39677;DHT22;27789;50.840;4.386;2023-06-14T00:13:12;22.90;86.40
39677;DHT22;27789;50.840;4.386;2023-06-14T00:15:40;22.90;86.60
39677;DHT22;27789;50.840;4.386;2023-06-14T00:18:06;23.00;86.90
39677;DHT22;27789;50.840;4.386;2023-06-14T00:20:32;22.80;86.70
39677;DHT22;27789;50.840;4.386;2023-06-14T00:23:00;22.80;86.80
39677;DHT22;27789;50.840;4.386;2023-06-14T00:25:26;22.80;86.80
39677;DHT22;27789;50.840;4.386;2023-06-14T00:27:52;22.80;87.10
39677;DHT22;27789;50.840;4.386;2023-06-14T00:30:18;22.70;87.20
39677;DHT22;27789;50.840;4.386;2023-06-14T00:32:44;22.70;87.20
39677;DHT22;27789;50.840;4.386;2023-06-14T00:35:10;22.70;86.90
39677;DHT22;27789;50.840;4.386;2023-06-14T00:37:36;22.70;87.00
39677;DHT22;27789;50.840;4.386;2023-06-14T00:40:02;22.60;86.90
39677;DHT22;27789;50.840;4.386;2023-06-14T00:42:28;22.60;87.10
39677;DHT22;27789;50.840;4.386;2023-06-14T00:44:54;22.60;87.10
39677;DHT22;27789;50.840;4.386;2023-06-14T00:47:19;22.60;87.20
39677;DHT22;27789;50.840;4.386;2023-06-14T00:49:52;22.50;87.60
39677;DHT22;27789;50.840;4.386;2023-06-14T00:52:18;22.50;88.00
39677;DHT22;27789;50.840;4.386;2023-06-14T00:54:44;22.40;88.00
39677;DHT22;27789;50.840;4.386;2023-06-14T00:57:10;22.40;87.90
39677;DHT22;27789;50.840;4.386;2023-06-14T00:59:38;22.40;88.40
39677;DHT22;27789;50.840;4.386;2023-06-14T01:02:06;22.30;88.20
39677;DHT22;27789;50.840;4.386;2023-06-14T01:04:31;22.20;88.60
39677;DHT22;27789;50.840;4.386;2023-06-14T01:11:52;22.20;88.70
39677;DHT22;27789;50.840;4.386;2023-06-14T01:14:19;22.10;88.60
39677;DHT22;27789;50.840;4.386;2023-06-14T01:16:46;22.10;88.80
39677;DHT22;27789;50.840;4.386;2023-06-14T01:19:12;22.10;88.90
39677;DHT22;27789;50.840;4.386;2023-06-14T01:21:39;22.00;88.90
39677;DHT22;27789;50.840;4.386;2023-06-14T01:24:08;22.00;88.90
39677;DHT22;27789;50.840;4.386;2023-06-14T01:26:34;22.00;89.10
39677;DHT22;27789;50.840;4.386;2023-06-14T01:29:00;22.00;89.40
39677;DHT22;27789;50.840;4.386;2023-06-14T01:31:26;21.90;89.20
39677;DHT22;27789;50.840;4.386;2023-06-14T01:33:52;21.90;89.50
39677;DHT22;27789;50.840;4.386;2023-06-14T01:36:18;21.90;89.70
39677;DHT22;27789;50.840;4.386;2023-06-14T01:38:45;21.80;89.90
39677;DHT22;27789;50.840;4.386;2023-06-14T01:41:11;21.80;90.00
39677;DHT22;27789;50.840;4.386;2023-06-14T01:43:37;21.80;90.00
39677;DHT22;27789;50.840;4.386;2023-06-14T01:46:03;21.80;90.10
39677;DHT22;27789;50.840;4.386;2023-06-14T01:48:30;21.70;90.30
39677;DHT22;27789;50.840;4.386;2023-06-14T01:50:55;21.70;90.30
39677;DHT22;27789;50.840;4.386;2023-06-14T01:53:21;21.70;90.40
39677;DHT22;27789;50.840;4.386;2023-06-14T01:55:47;21.60;90.30
39677;DHT22;27789;50.840;4.386;2023-06-14T01:58:13;21.60;90.30
39677;DHT22;27789;50.840;4.386;2023-06-14T02:00:41;21.60;90.40
39677;DHT22;27789;50.840;4.386;2023-06-14T02:03:08;21.50;90.60
39677;DHT22;27789;50.840;4.386;2023-06-14T02:05:34;21.50;90.40
39677;DHT22;27789;50.840;4.386;2023-06-14T02:08:00;21.50;90.40
39677;DHT22;27789;50.840;4.386;2023-06-14T02:10:25;21.50;90.60
39677;DHT22;27789;50.840;4.386;2023-06-14T02:12:51;21.40;90.80
39677;DHT22;27789;50.840;4.386;2023-06-14T02:15:17;21.30;90.80
39677;DHT22;27789;50.840;4.386;2023-06-14T02:17:43;21.30;90.90
39677;DHT22;27789;50.840;4.386;2023-06-14T02:20:10;21.20;90.80
39677;DHT22;27789;50.840;4.386;2023-06-14T02:22:35;21.20;91.00
39677;DHT22;27789;50.840;4.386;2023-06-14T02:25:01;21.20;91.00
39677;DHT22;27789;50.840;4.386;2023-06-14T02:27:26;21.10;91.10
39677;DHT22;27789;50.840;4.386;2023-06-14T02:29:52;21.10;91.10
39677;DHT22;27789;50.840;4.386;2023-06-14T02:32:17;21.10;91.20
39677;DHT22;27789;50.840;4.386;2023-06-14T02:34:43;21.00;91.20
39677;DHT22;27789;50.840;4.386;2023-06-14T02:37:08;21.00;91.20
39677;DHT22;27789;50.840;4.386;2023-06-14T02:39:34;21.00;91.30
39677;DHT22;27789;50.840;4.386;2023-06-14T02:42:00;20.90;91.30
39677;DHT22;27789;50.840;4.386;2023-06-14T02:44:26;20.90;91.50
39677;DHT22;27789;50.840;4.386;2023-06-14T02:46:53;20.90;91.50
39677;DHT22;27789;50.840;4.386;2023-06-14T02:49:18;20.80;91.40
39677;DHT22;27789;50.840;4.386;2023-06-14T02:51:44;20.90;91.40
39677;DHT22;27789;50.840;4.386;2023-06-14T02:54:10;20.90;91.70
39677;DHT22;27789;50.840;4.386;2023-06-14T02:56:35;20.90;91.50
39677;DHT22;27789;50.840;4.386;2023-06-14T02:59:01;20.90;91.50
39677;DHT22;27789;50.840;4.386;2023-06-14T03:01:27;20.90;91.50
39677;DHT22;27789;50.840;4.386;2023-06-14T03:03:59;20.80;91.50
39677;DHT22;27789;50.840;4.386;2023-06-14T03:06:25;20.70;91.60
39677;DHT22;27789;50.840;4.386;2023-06-14T03:08:50;20.70;91.60
39677;DHT22;27789;50.840;4.386;2023-06-14T03:11:16;20.70;91.60
39677;DHT22;27789;50.840;4.386;2023-06-14T03:13:45;20.70;91.70
39677;DHT22;27789;50.840;4.386;2023-06-14T03:16:13;20.70;91.70
39677;DHT22;27789;50.840;4.386;2023-06-14T03:18:39;20.70;91.80
39677;DHT22;27789;50.840;4.386;2023-06-14T03:21:05;20.60;92.00
39677;DHT22;27789;50.840;4.386;2023-06-14T03:23:31;20.50;92.00
39677;DHT22;27789;50.840;4.386;2023-06-14T03:25:57;20.50;92.30
39677;DHT22;27789;50.840;4.386;2023-06-14T03:28:22;20.50;91.90
39677;DHT22;27789;50.840;4.386;2023-06-14T03:30:48;20.50;92.00
39677;DHT22;27789;50.840;4.386;2023-06-14T03:33:13;20.50;92.10
39677;DHT22;27789;50.840;4.386;2023-06-14T03:35:39;20.50;92.10
39677;DHT22;27789;50.840;4.386;2023-06-14T03:38:04;20.50;92.10
39677;DHT22;27789;50.840;4.386;2023-06-14T03:40:30;20.50;92.10
39677;DHT22;27789;50.840;4.386;2023-06-14T03:42:56;20.50;92.20
39677;DHT22;27789;50.840;4.386;2023-06-14T03:45:21;20.40;92.20
39677;DHT22;27789;50.840;4.386;2023-06-14T03:47:47;20.40;92.30
39677;DHT22;27789;50.840;4.386;2023-06-14T03:50:13;20.40;92.30
39677;DHT22;27789;50.840;4.386;2023-06-14T03:52:38;20.30;92.40
39677;DHT22;27789;50.840;4.386;2023-06-14T03:55:04;20.30;92.30
39677;DHT22;27789;50.840;4.386;2023-06-14T03:57:30;20.20;92.50
39677;DHT22;27789;50.840;4.386;2023-06-14T03:59:56;20.30;92.50
39677;DHT22;27789;50.840;4.386;2023-06-14T04:02:21;20.20;92.50
39677;DHT22;27789;50.840;4.386;2023-06-14T04:04:48;20.20;92.60
39677;DHT22;27789;50.840;4.386;2023-06-14T04:07:14;20.20;92.60
39677;DHT22;27789;50.840;4.386;2023-06-14T04:09:39;20.20;92.70
39677;DHT22;27789;50.840;4.386;2023-06-14T04:12:06;20.10;92.70
39677;DHT22;27789;50.840;4.386;2023-06-14T04:14:31;20.10;92.70
39677;DHT22;27789;50.840;4.386;2023-06-14T04:16:58;20.10;92.70
39677;DHT22;27789;50.840;4.386;2023-06-14T04:19:23;20.10;92.80
39677;DHT22;27789;50.840;4.386;2023-06-14T04:21:49;20.10;92.80
39677;DHT22;27789;50.840;4.386;2023-06-14T04:24:15;20.20;92.80
39677;DHT22;27789;50.840;4.386;2023-06-14T04:26:41;20.10;92.70
39677;DHT22;27789;50.840;4.386;2023-06-14T04:29:06;20.20;92.70
39677;DHT22;27789;50.840;4.386;2023-06-14T04:31:32;20.20;92.80
39677;DHT22;27789;50.840;4.386;2023-06-14T04:34:04;20.10;92.80
39677;DHT22;27789;50.840;4.386;2023-06-14T04:36:32;20.10;92.90
39677;DHT22;27789;50.840;4.386;2023-06-14T04:39:00;20.10;92.90
39677;DHT22;27789;50.840;4.386;2023-06-14T04:41:26;20.20;92.90
39677;DHT22;27789;50.840;4.386;2023-06-14T04:43:56;20.20;92.80
39677;DHT22;27789;50.840;4.386;2023-06-14T04:46:22;20.20;92.80
39677;DHT22;27789;50.840;4.386;2023-06-14T04:48:47;20.20;92.80
39677;DHT22;27789;50.840;4.386;2023-06-14T04:51:15;20.20;92.70
39677;DHT22;27789;50.840;4.386;2023-06-14T04:53:41;20.20;92.80
39677;DHT22;27789;50.840;4.386;2023-06-14T04:56:08;20.20;92.80
39677;DHT22;27789;50.840;4.386;2023-06-14T04:58:33;20.20;92.90
39677;DHT22;27789;50.840;4.386;2023-06-14T05:00:59;20.30;92.90
39677;DHT22;27789;50.840;4.386;2023-06-14T05:03:25;20.30;92.80
39677;DHT22;27789;50.840;4.386;2023-06-14T05:05:50;20.30;92.70
39677;DHT22;27789;50.840;4.386;2023-06-14T05:08:18;20.30;92.70
39677;DHT22;27789;50.840;4.386;2023-06-14T05:10:44;20.30;92.70
39677;DHT22;27789;50.840;4.386;2023-06-14T05:13:09;20.30;92.80
39677;DHT22;27789;50.840;4.386;2023-06-14T05:15:35;20.50;94.60
39677;DHT22;27789;50.840;4.386;2023-06-14T05:18:01;21.10;93.70
39677;DHT22;27789;50.840;4.386;2023-06-14T05:20:28;21.60;92.80
39677;DHT22;27789;50.840;4.386;2023-06-14T05:22:54;22.00;92.30
39677;DHT22;27789;50.840;4.386;2023-06-14T05:25:20;22.20;92.10
39677;DHT22;27789;50.840;4.386;2023-06-14T05:27:46;22.40;91.90
39677;DHT22;27789;50.840;4.386;2023-06-14T05:30:12;22.60;91.20
39677;DHT22;27789;50.840;4.386;2023-06-14T05:32:38;22.50;91.40
39677;DHT22;27789;50.840;4.386;2023-06-14T05:35:03;22.50;91.30
39677;DHT22;27789;50.840;4.386;2023-06-14T05:37:29;22.40;91.60
39677;DHT22;27789;50.840;4.386;2023-06-14T05:39:56;22.60;91.40
39677;DHT22;27789;50.840;4.386;2023-06-14T05:42:21;22.70;91.30
39677;DHT22;27789;50.840;4.386;2023-06-14T05:44:47;22.90;91.20
39677;DHT22;27789;50.840;4.386;2023-06-14T05:47:12;22.80;91.00
39677;DHT22;27789;50.840;4.386;2023-06-14T05:49:38;22.70;91.30
39677;DHT22;27789;50.840;4.386;2023-06-14T05:52:03;22.80;90.80
39677;DHT22;27789;50.840;4.386;2023-06-14T05:54:30;22.70;91.30
39677;DHT22;27789;50.840;4.386;2023-06-14T05:56:55;22.90;91.20
39677;DHT22;27789;50.840;4.386;2023-06-14T05:59:21;22.90;91.40
39677;DHT22;27789;50.840;4.386;2023-06-14T06:01:46;22.90;91.30
39677;DHT22;27789;50.840;4.386;2023-06-14T06:04:12;23.00;91.40
39677;DHT22;27789;50.840;4.386;2023-06-14T06:06:37;23.00;91.60
39677;DHT22;27789;50.840;4.386;2023-06-14T06:09:03;23.10;91.70
39677;DHT22;27789;50.840;4.386;2023-06-14T06:11:29;23.20;92.00
39677;DHT22;27789;50.840;4.386;2023-06-14T06:13:54;23.30;92.10
39677;DHT22;27789;50.840;4.386;2023-06-14T06:16:20;23.50;92.20
39677;DHT22;27789;50.840;4.386;2023-06-14T06:18:45;23.50;91.50
39677;DHT22;27789;50.840;4.386;2023-06-14T06:21:11;23.40;91.60
39677;DHT22;27789;50.840;4.386;2023-06-14T06:23:36;23.40;91.70
39677;DHT22;27789;50.840;4.386;2023-06-14T06:26:02;23.40;91.50
39677;DHT22;27789;50.840;4.386;2023-06-14T06:28:28;23.40;91.50
39677;DHT22;27789;50.840;4.386;2023-06-14T06:30:54;23.20;91.60
39677;DHT22;27789;50.840;4.386;2023-06-14T06:33:19;23.20;92.20
39677;DHT22;27789;50.840;4.386;2023-06-14T06:35:45;23.30;91.70
39677;DHT22;27789;50.840;4.386;2023-06-14T06:38:10;23.40;91.70
39677;DHT22;27789;50.840;4.386;2023-06-14T06:40:36;23.50;92.00
39677;DHT22;27789;50.840;4.386;2023-06-14T06:43:02;23.60;92.10
39677;DHT22;27789;50.840;4.386;2023-06-14T06:45:28;23.60;91.40
39677;DHT22;27789;50.840;4.386;2023-06-14T06:47:53;23.60;91.60
39677;DHT22;27789;50.840;4.386;2023-06-14T06:50:20;23.70;91.60
39677;DHT22;27789;50.840;4.386;2023-06-14T06:52:48;23.70;92.90
39677;DHT22;27789;50.840;4.386;2023-06-14T06:55:14;23.80;93.50
39677;DHT22;27789;50.840;4.386;2023-06-14T06:57:39;23.80;92.80
39677;DHT22;27789;50.840;4.386;2023-06-14T07:00:07;23.90;92.30
39677;DHT22;27789;50.840;4.386;2023-06-14T07:02:35;24.00;92.80
39677;DHT22;27789;50.840;4.386;2023-06-14T07:05:01;24.10;91.40
39677;DHT22;27789;50.840;4.386;2023-06-14T07:07:27;24.20;91.60
39677;DHT22;27789;50.840;4.386;2023-06-14T07:09:52;24.30;91.80
39677;DHT22;27789;50.840;4.386;2023-06-14T07:12:18;24.40;91.30
39677;DHT22;27789;50.840;4.386;2023-06-14T07:14:43;24.40;91.30
39677;DHT22;27789;50.840;4.386;2023-06-14T07:17:09;24.50;91.10
39677;DHT22;27789;50.840;4.386;2023-06-14T07:19:34;24.50;90.40
39677;DHT22;27789;50.840;4.386;2023-06-14T07:22:02;24.40;91.00
39677;DHT22;27789;50.840;4.386;2023-06-14T07:24:28;24.40;90.60
39677;DHT22;27789;50.840;4.386;2023-06-14T07:26:54;24.50;90.90
39677;DHT22;27789;50.840;4.386;2023-06-14T07:29:20;24.60;90.90
39677;DHT22;27789;50.840;4.386;2023-06-14T07:31:46;24.60;90.20
39677;DHT22;27789;50.840;4.386;2023-06-14T07:34:12;24.40;90.60
39677;DHT22;27789;50.840;4.386;2023-06-14T07:36:37;24.40;91.90
39677;DHT22;27789;50.840;4.386;2023-06-14T07:39:03;24.50;90.40
39677;DHT22;27789;50.840;4.386;2023-06-14T07:41:29;24.50;91.50
39677;DHT22;27789;50.840;4.386;2023-06-14T07:43:54;24.60;91.40
39677;DHT22;27789;50.840;4.386;2023-06-14T07:46:23;24.70;90.80
39677;DHT22;27789;50.840;4.386;2023-06-14T07:48:48;24.70;91.30
39677;DHT22;27789;50.840;4.386;2023-06-14T07:51:14;24.80;91.60
39677;DHT22;27789;50.840;4.386;2023-06-14T07:53:39;24.90;90.70
39677;DHT22;27789;50.840;4.386;2023-06-14T07:56:06;24.90;90.90
39677;DHT22;27789;50.840;4.386;2023-06-14T07:58:31;24.90;91.10
39677;DHT22;27789;50.840;4.386;2023-06-14T08:00:57;25.10;90.90
39677;DHT22;27789;50.840;4.386;2023-06-14T08:03:22;25.20;90.90
39677;DHT22;27789;50.840;4.386;2023-06-14T08:05:51;25.40;90.70
39677;DHT22;27789;50.840;4.386;2023-06-14T08:08:17;25.50;90.60
39677;DHT22;27789;50.840;4.386;2023-06-14T08:10:42;25.50;90.30
39677;DHT22;27789;50.840;4.386;2023-06-14T08:13:08;25.60;90.00
39677;DHT22;27789;50.840;4.386;2023-06-14T08:15:35;25.70;90.40
39677;DHT22;27789;50.840;4.386;2023-06-14T08:18:00;25.70;90.60
39677;DHT22;27789;50.840;4.386;2023-06-14T08:20:26;25.80;89.90
39677;DHT22;27789;50.840;4.386;2023-06-14T08:22:52;25.90;89.00
39677;DHT22;27789;50.840;4.386;2023-06-14T08:25:20;25.90;90.10
39677;DHT22;27789;50.840;4.386;2023-06-14T08:27:46;26.00;90.40
39677;DHT22;27789;50.840;4.386;2023-06-14T08:30:11;26.00;90.30
39677;DHT22;27789;50.840;4.386;2023-06-14T08:32:37;26.10;89.90
39677;DHT22;27789;50.840;4.386;2023-06-14T08:35:03;26.10;90.40
39677;DHT22;27789;50.840;4.386;2023-06-14T08:37:29;26.20;90.00
39677;DHT22;27789;50.840;4.386;2023-06-14T08:39:55;26.30;89.40
39677;DHT22;27789;50.840;4.386;2023-06-14T08:42:21;26.30;88.90
39677;DHT22;27789;50.840;4.386;2023-06-14T08:44:49;26.30;88.70
39677;DHT22;27789;50.840;4.386;2023-06-14T08:47:15;26.30;89.20
39677;DHT22;27789;50.840;4.386;2023-06-14T08:49:43;26.30;89.60
39677;DHT22;27789;50.840;4.386;2023-06-14T08:52:10;26.40;89.60
39677;DHT22;27789;50.840;4.386;2023-06-14T08:54:36;26.40;90.70
39677;DHT22;27789;50.840;4.386;2023-06-14T08:57:10;26.50;91.20
39677;DHT22;27789;50.840;4.386;2023-06-14T08:59:37;26.60;90.30
39677;DHT22;27789;50.840;4.386;2023-06-14T09:02:09;26.70;89.30
39677;DHT22;27789;50.840;4.386;2023-06-14T09:04:38;26.70;89.50
39677;DHT22;27789;50.840;4.386;2023-06-14T09:07:05;26.60;89.00
39677;DHT22;27789;50.840;4.386;2023-06-14T09:09:31;26.70;88.00
39677;DHT22;27789;50.840;4.386;2023-06-14T09:11:57;26.70;90.00
39677;DHT22;27789;50.840;4.386;2023-06-14T09:14:23;26.80;90.00
39677;DHT22;27789;50.840;4.386;2023-06-14T09:16:52;26.80;90.10
39677;DHT22;27789;50.840;4.386;2023-06-14T09:19:24;26.90;90.30
39677;DHT22;27789;50.840;4.386;2023-06-14T09:21:50;27.00;90.10
39677;DHT22;27789;50.840;4.386;2023-06-14T09:24:18;27.10;90.60
39677;DHT22;27789;50.840;4.386;2023-06-14T09:26:46;27.10;90.10
39677;DHT22;27789;50.840;4.386;2023-06-14T09:29:11;27.10;90.20
39677;DHT22;27789;50.840;4.386;2023-06-14T09:31:37;27.20;90.00
39677;DHT22;27789;50.840;4.386;2023-06-14T09:34:03;27.20;88.40
39677;DHT22;27789;50.840;4.386;2023-06-14T09:36:30;27.10;88.20
39677;DHT22;27789;50.840;4.386;2023-06-14T09:38:57;27.20;87.90
39677;DHT22;27789;50.840;4.386;2023-06-14T09:43:59;27.20;86.80
39677;DHT22;27789;50.840;4.386;2023-06-14T09:46:28;27.10;87.80
39677;DHT22;27789;50.840;4.386;2023-06-14T09:48:59;27.20;87.40
39677;DHT22;27789;50.840;4.386;2023-06-14T09:51:26;27.30;87.90
39677;DHT22;27789;50.840;4.386;2023-06-14T09:53:52;27.40;87.50
39677;DHT22;27789;50.840;4.386;2023-06-14T09:56:37;27.40;86.30
39677;DHT22;27789;50.840;4.386;2023-06-14T09:59:04;27.40;85.10
39677;DHT22;27789;50.840;4.386;2023-06-14T10:01:30;27.30;86.90
39677;DHT22;27789;50.840;4.386;2023-06-14T10:04:05;27.40;86.70
39677;DHT22;27789;50.840;4.386;2023-06-14T10:06:32;27.60;86.90
39677;DHT22;27789;50.840;4.386;2023-06-14T10:08:58;27.70;86.70
39677;DHT22;27789;50.840;4.386;2023-06-14T10:11:28;27.70;86.40
39677;DHT22;27789;50.840;4.386;2023-06-14T10:13:57;27.70;85.20
39677;DHT22;27789;50.840;4.386;2023-06-14T10:18:53;27.80;85.40
39677;DHT22;27789;50.840;4.386;2023-06-14T10:24:01;27.90;84.90
39677;DHT22;27789;50.840;4.386;2023-06-14T10:26:28;28.00;84.90
39677;DHT22;27789;50.840;4.386;2023-06-14T10:31:23;28.10;83.90
39677;DHT22;27789;50.840;4.386;2023-06-14T10:34:04;28.20;84.10
39677;DHT22;27789;50.840;4.386;2023-06-14T10:36:30;28.30;83.80
39677;DHT22;27789;50.840;4.386;2023-06-14T10:38:57;28.40;84.10
39677;DHT22;27789;50.840;4.386;2023-06-14T10:41:23;28.40;83.40
39677;DHT22;27789;50.840;4.386;2023-06-14T10:43:48;28.50;83.40
39677;DHT22;27789;50.840;4.386;2023-06-14T10:46:17;28.50;83.50
39677;DHT22;27789;50.840;4.386;2023-06-14T10:48:43;28.60;83.70
39677;DHT22;27789;50.840;4.386;2023-06-14T10:51:15;28.80;83.70
39677;DHT22;27789;50.840;4.386;2023-06-14T10:53:42;28.80;83.40
39677;DHT22;27789;50.840;4.386;2023-06-14T10:56:08;29.00;81.40
39677;DHT22;27789;50.840;4.386;2023-06-14T10:58:33;29.00;82.60
39677;DHT22;27789;50.840;4.386;2023-06-14T11:00:59;29.00;81.70
39677;DHT22;27789;50.840;4.386;2023-06-14T11:03:36;29.00;82.90
39677;DHT22;27789;50.840;4.386;2023-06-14T11:06:16;29.10;79.60
39677;DHT22;27789;50.840;4.386;2023-06-14T11:11:17;29.30;80.50
39677;DHT22;27789;50.840;4.386;2023-06-14T11:13:46;29.30;81.50
39677;DHT22;27789;50.840;4.386;2023-06-14T11:16:12;29.50;80.40
39677;DHT22;27789;50.840;4.386;2023-06-14T11:18:38;29.60;80.30
39677;DHT22;27789;50.840;4.386;2023-06-14T11:21:04;29.60;80.20
39677;DHT22;27789;50.840;4.386;2023-06-14T11:23:29;29.70;79.70
39677;DHT22;27789;50.840;4.386;2023-06-14T11:25:55;29.70;79.10
39677;DHT22;27789;50.840;4.386;2023-06-14T11:28:20;29.70;79.50
39677;DHT22;27789;50.840;4.386;2023-06-14T11:30:47;29.70;79.00
39677;DHT22;27789;50.840;4.386;2023-06-14T11:33:16;29.90;78.20
39677;DHT22;27789;50.840;4.386;2023-06-14T11:35:42;30.80;78.80
39677;DHT22;27789;50.840;4.386;2023-06-14T11:38:09;31.80;78.20
39677;DHT22;27789;50.840;4.386;2023-06-14T11:40:35;32.70;75.90
39677;DHT22;27789;50.840;4.386;2023-06-14T11:43:02;33.20;74.30
39677;DHT22;27789;50.840;4.386;2023-06-14T11:45:28;33.50;74.00
39677;DHT22;27789;50.840;4.386;2023-06-14T11:47:58;34.10;73.80
39677;DHT22;27789;50.840;4.386;2023-06-14T11:50:24;34.70;73.30
39677;DHT22;27789;50.840;4.386;2023-06-14T11:52:56;35.40;73.80
39677;DHT22;27789;50.840;4.386;2023-06-14T11:55:22;35.80;72.60
39677;DHT22;27789;50.840;4.386;2023-06-14T11:57:47;36.20;72.00
39677;DHT22;27789;50.840;4.386;2023-06-14T12:00:13;36.30;71.00
39677;DHT22;27789;50.840;4.386;2023-06-14T12:02:41;36.40;71.10
39677;DHT22;27789;50.840;4.386;2023-06-14T12:05:06;36.70;71.50
39677;DHT22;27789;50.840;4.386;2023-06-14T12:07:38;36.80;70.50
39677;DHT22;27789;50.840;4.386;2023-06-14T12:10:08;36.90;70.30
39677;DHT22;27789;50.840;4.386;2023-06-14T12:12:39;37.10;70.20
39677;DHT22;27789;50.840;4.386;2023-06-14T12:15:05;37.00;69.50
39677;DHT22;27789;50.840;4.386;2023-06-14T12:17:34;37.30;70.30
39677;DHT22;27789;50.840;4.386;2023-06-14T12:22:56;37.50;70.00
39677;DHT22;27789;50.840;4.386;2023-06-14T12:25:29;37.70;69.70
39677;DHT22;27789;50.840;4.386;2023-06-14T12:28:03;37.80;68.90
39677;DHT22;27789;50.840;4.386;2023-06-14T12:30:28;37.80;68.50
39677;DHT22;27789;50.840;4.386;2023-06-14T12:32:54;37.60;68.60
39677;DHT22;27789;50.840;4.386;2023-06-14T12:35:19;37.50;67.10
39677;DHT22;27789;50.840;4.386;2023-06-14T12:37:45;37.30;67.30
39677;DHT22;27789;50.840;4.386;2023-06-14T12:40:11;37.30;68.50
39677;DHT22;27789;50.840;4.386;2023-06-14T12:42:37;37.20;68.30
39677;DHT22;27789;50.840;4.386;2023-06-14T12:45:02;37.10;68.10
39677;DHT22;27789;50.840;4.386;2023-06-14T12:47:28;37.10;67.50
39677;DHT22;27789;50.840;4.386;2023-06-14T12:49:53;37.00;67.40
39677;DHT22;27789;50.840;4.386;2023-06-14T12:52:19;37.30;67.30
39677;DHT22;27789;50.840;4.386;2023-06-14T12:54:45;37.50;67.30
39677;DHT22;27789;50.840;4.386;2023-06-14T12:57:10;37.60;67.50
39677;DHT22;27789;50.840;4.386;2023-06-14T12:59:35;37.80;67.20
39677;DHT22;27789;50.840;4.386;2023-06-14T13:04:37;38.00;67.20
39677;DHT22;27789;50.840;4.386;2023-06-14T13:07:03;38.10;67.00
39677;DHT22;27789;50.840;4.386;2023-06-14T13:09:29;38.10;66.60
39677;DHT22;27789;50.840;4.386;2023-06-14T13:11:54;38.20;66.70
39677;DHT22;27789;50.840;4.386;2023-06-14T13:14:20;38.30;66.80
39677;DHT22;27789;50.840;4.386;2023-06-14T13:16:45;38.10;66.40
39677;DHT22;27789;50.840;4.386;2023-06-14T13:19:11;37.40;66.70
39677;DHT22;27789;50.840;4.386;2023-06-14T13:21:36;36.80;67.20
39677;DHT22;27789;50.840;4.386;2023-06-14T13:24:02;36.40;68.00
39677;DHT22;27789;50.840;4.386;2023-06-14T13:26:27;36.30;67.90
39677;DHT22;27789;50.840;4.386;2023-06-14T13:28:53;36.30;67.60
39677;DHT22;27789;50.840;4.386;2023-06-14T13:31:18;36.30;68.20
39677;DHT22;27789;50.840;4.386;2023-06-14T13:33:44;36.40;67.20
39677;DHT22;27789;50.840;4.386;2023-06-14T13:36:10;36.50;67.40
39677;DHT22;27789;50.840;4.386;2023-06-14T13:38:35;36.30;67.30
39677;DHT22;27789;50.840;4.386;2023-06-14T13:41:01;36.20;67.40
39677;DHT22;27789;50.840;4.386;2023-06-14T13:43:26;36.20;66.70
39677;DHT22;27789;50.840;4.386;2023-06-14T13:45:52;36.40;67.70
39677;DHT22;27789;50.840;4.386;2023-06-14T13:48:17;36.80;66.70
39677;DHT22;27789;50.840;4.386;2023-06-14T13:50:43;36.80;65.80
39677;DHT22;27789;50.840;4.386;2023-06-14T13:53:09;36.60;66.10
39677;DHT22;27789;50.840;4.386;2023-06-14T13:55:35;36.20;66.40
39677;DHT22;27789;50.840;4.386;2023-06-14T13:58:00;35.30;65.30
39677;DHT22;27789;50.840;4.386;2023-06-14T14:00:26;34.40;66.10
39677;DHT22;27789;50.840;4.386;2023-06-14T14:02:51;33.80;66.30
39677;DHT22;27789;50.840;4.386;2023-06-14T14:05:17;33.50;66.70
39677;DHT22;27789;50.840;4.386;2023-06-14T14:07:42;33.20;67.30
39677;DHT22;27789;50.840;4.386;2023-06-14T14:10:08;33.10;67.00
39677;DHT22;27789;50.840;4.386;2023-06-14T14:12:34;33.00;67.40
39677;DHT22;27789;50.840;4.386;2023-06-14T14:14:59;32.80;67.10
39677;DHT22;27789;50.840;4.386;2023-06-14T14:17:25;32.70;67.40
39677;DHT22;27789;50.840;4.386;2023-06-14T14:19:50;32.60;68.80
39677;DHT22;27789;50.840;4.386;2023-06-14T14:22:16;32.50;68.60
39677;DHT22;27789;50.840;4.386;2023-06-14T14:24:41;32.50;67.90
39677;DHT22;27789;50.840;4.386;2023-06-14T14:27:07;32.40;68.10
39677;DHT22;27789;50.840;4.386;2023-06-14T14:29:33;32.50;68.00
39677;DHT22;27789;50.840;4.386;2023-06-14T14:31:58;32.50;68.30
39677;DHT22;27789;50.840;4.386;2023-06-14T14:34:24;32.20;67.20
39677;DHT22;27789;50.840;4.386;2023-06-14T14:36:50;32.00;67.10
39677;DHT22;27789;50.840;4.386;2023-06-14T14:39:15;31.90;67.60
39677;DHT22;27789;50.840;4.386;2023-06-14T14:41:41;31.80;67.50
39677;DHT22;27789;50.840;4.386;2023-06-14T14:44:06;31.80;67.70
39677;DHT22;27789;50.840;4.386;2023-06-14T14:46:32;31.90;67.50
39677;DHT22;27789;50.840;4.386;2023-06-14T14:49:00;31.90;67.60
39677;DHT22;27789;50.840;4.386;2023-06-14T14:51:26;31.90;68.30
39677;DHT22;27789;50.840;4.386;2023-06-14T14:53:52;31.90;67.70
39677;DHT22;27789;50.840;4.386;2023-06-14T14:56:17;31.90;69.10
39677;DHT22;27789;50.840;4.386;2023-06-14T14:58:43;31.90;67.90
39677;DHT22;27789;50.840;4.386;2023-06-14T15:01:09;31.80;67.80
39677;DHT22;27789;50.840;4.386;2023-06-14T15:03:35;31.80;67.40
39677;DHT22;27789;50.840;4.386;2023-06-14T15:06:01;31.70;67.50
39677;DHT22;27789;50.840;4.386;2023-06-14T15:08:26;31.70;67.80
39677;DHT22;27789;50.840;4.386;2023-06-14T15:10:52;31.70;66.90
39677;DHT22;27789;50.840;4.386;2023-06-14T15:13:17;31.80;67.20
39677;DHT22;27789;50.840;4.386;2023-06-14T15:15:43;31.80;67.40
39677;DHT22;27789;50.840;4.386;2023-06-14T15:18:09;31.70;67.40
39677;DHT22;27789;50.840;4.386;2023-06-14T15:20:35;31.60;67.60
39677;DHT22;27789;50.840;4.386;2023-06-14T15:23:00;31.60;68.10
39677;DHT22;27789;50.840;4.386;2023-06-14T15:25:29;31.40;68.20
39677;DHT22;27789;50.840;4.386;2023-06-14T15:27:55;31.40;68.00
39677;DHT22;27789;50.840;4.386;2023-06-14T15:30:21;31.30;68.30
39677;DHT22;27789;50.840;4.386;2023-06-14T15:32:46;31.30;68.40
39677;DHT22;27789;50.840;4.386;2023-06-14T15:35:12;31.20;68.30
39677;DHT22;27789;50.840;4.386;2023-06-14T15:37:38;31.10;68.10
39677;DHT22;27789;50.840;4.386;2023-06-14T15:40:04;31.10;68.50
39677;DHT22;27789;50.840;4.386;2023-06-14T15:42:30;31.00;68.90
39677;DHT22;27789;50.840;4.386;2023-06-14T15:44:55;30.90;69.00
39677;DHT22;27789;50.840;4.386;2023-06-14T15:47:21;30.90;69.40